This is the latest recevied weather packets stored in our database for station/object KE5QKR. If no packets are shown the sender has not sent any weather packets the latest 10 day(s).
| Time | Temp. | Humidity | Pressure | Rain* | Wind** | Luminosity | Snow |
|---|---|---|---|---|---|---|---|
| 1777914206 | 24.44° C | 49% | 1015.8 hPa | 0 mm | - | 854 W/m² | - |
| 1777913903 | 25° C | 51% | 1015.9 hPa | 0 mm | - | 852 W/m² | - |
| 1777913599 | 25.56° C | 47% | 1016 hPa | 0 mm | - | 848 W/m² | - |
| 1777913296 | 25° C | 53% | 1015.7 hPa | 0 mm | - | 840 W/m² | - |
| 1777912993 | 24.44° C | 50% | 1015.8 hPa | 0 mm | - | 838 W/m² | - |
| 1777912689 | 23.89° C | 54% | 1015.8 hPa | 0 mm | - | 698 W/m² | - |
| 1777912385 | 23.89° C | 50% | 1016 hPa | 0 mm | - | 807 W/m² | - |
| 1777912081 | 23.33° C | 50% | 1016.2 hPa | 0 mm | - | 812 W/m² | - |
| 1777911777 | 23.33° C | 53% | 1016.1 hPa | 0 mm | - | 802 W/m² | - |
| 1777911474 | 23.89° C | 48% | 1016.4 hPa | 0 mm | - | 795 W/m² | - |
| 1777911171 | 24.44° C | 48% | 1016.4 hPa | 0 mm | - | 786 W/m² | - |
| 1777910869 | 24.44° C | 53% | 1016.4 hPa | 0 mm | - | 776 W/m² | - |
| 1777910565 | 23.33° C | 48% | 1016.2 hPa | 0 mm | - | 767 W/m² | - |
| 1777910262 | 24.44° C | 47% | 1016.3 hPa | 0 mm | - | 762 W/m² | - |
| 1777909959 | 23.33° C | 49% | 1016.4 hPa | 0 mm | - | 752 W/m² | - |
| 1777909656 | 23.33° C | 51% | 1016.3 hPa | 0 mm | - | 740 W/m² | - |
| 1777909353 | 23.89° C | 51% | 1016.5 hPa | 0 mm | - | 730 W/m² | - |
| 1777909075 | 22.78° C | 57% | 1016.2 hPa | 0 mm | - | 717 W/m² | - |
| 1777908749 | 22.78° C | 57% | 1016.3 hPa | 0 mm | - | 706 W/m² | - |
| 1777908445 | 23.33° C | 51% | 1016.6 hPa | 0 mm | - | 691 W/m² | - |
| 1777908142 | 23.89° C | 52% | 1016.6 hPa | 0 mm | - | 680 W/m² | - |
| 1777907838 | 23.89° C | 53% | 1016.7 hPa | 0 mm | - | 669 W/m² | - |
| 1777907534 | 23.33° C | 51% | 1016.3 hPa | 0 mm | - | 654 W/m² | - |
| 1777907230 | 23.33° C | 54% | 1016.8 hPa | 0 mm | - | 639 W/m² | - |
| 1777906927 | 22.78° C | 56% | 1016.5 hPa | 0 mm | - | 625 W/m² | - |
* Rain latest hour (hover to see other rain measurements)
** Current wind speed in m/s (hover to see current wind gust speed)